Time;durP1;ratioP1;P1;durP2;ratioP2;P2;SDS_P1;SDS_P2;PMS_P1;PMS_P2;Temp;Humidity;BMP_temperature;BMP_pressure;BME280_temperature;BME280_humidity;BME280_pressure;Samples;Min_cycle;Max_cycle;Signal;HPM_P1;HPM_P2
2023/05/06 00:02:08;;;;;;;9.60;6.32;;;12.20;99.90;;;;;;6270216;22;20028;-69
2023/05/06 00:04:34;;;;;;;9.75;6.70;;;12.20;99.90;;;;;;6270036;22;20351;-69
2023/05/06 00:07:00;;;;;;;9.20;6.70;;;12.20;99.90;;;;;;6271324;22;20023;-69
2023/05/06 00:09:26;;;;;;;8.15;6.50;;;12.10;99.90;;;;;;6271924;22;20032;-69
2023/05/06 00:11:52;;;;;;;9.98;5.93;;;12.10;99.90;;;;;;6271619;22;20019;-69
2023/05/06 00:14:18;;;;;;;6.90;5.38;;;12.10;99.90;;;;;;6244310;22;20028;-69
2023/05/06 00:16:43;;;;;;;7.70;5.60;;;12.00;99.90;;;;;;6271977;22;20079;-69
2023/05/06 00:19:09;;;;;;;8.07;6.03;;;12.00;99.90;;;;;;6271956;22;20019;-69
2023/05/06 00:21:35;;;;;;;6.90;5.18;;;12.00;99.90;;;;;;6271669;22;20023;-69
2023/05/06 00:24:01;;;;;;;6.75;5.13;;;11.90;99.90;;;;;;6271970;22;20443;-69
2023/05/06 00:26:26;;;;;;;7.20;5.75;;;11.90;99.90;;;;;;6269758;22;20091;-71
2023/05/06 00:28:52;;;;;;;5.88;4.82;;;11.90;99.90;;;;;;6271661;22;20034;-71
2023/05/06 00:31:17;;;;;;;6.10;5.32;;;11.90;99.90;;;;;;6244448;22;20234;-71
2023/05/06 00:33:43;;;;;;;7.07;5.57;;;11.90;99.90;;;;;;6271758;22;20058;-71
2023/05/06 00:36:09;;;;;;;4.53;4.10;;;11.80;99.90;;;;;;6271364;22;20012;-71
2023/05/06 00:38:35;;;;;;;4.72;4.22;;;11.80;99.90;;;;;;6244177;22;20024;-71
2023/05/06 00:41:02;;;;;;;7.40;4.25;;;11.70;99.90;;;;;;6271499;22;20022;-71
2023/05/06 00:43:27;;;;;;;7.45;5.07;;;11.80;99.90;;;;;;6244432;22;20533;-66
2023/05/06 00:45:53;;;;;;;7.43;5.18;;;11.70;99.90;;;;;;6271807;22;20020;-66
2023/05/06 00:48:19;;;;;;;5.25;4.20;;;11.60;99.90;;;;;;6244415;22;20019;-67
2023/05/06 00:50:45;;;;;;;6.43;5.05;;;11.60;99.90;;;;;;6243824;22;20077;-66
2023/05/06 00:53:11;;;;;;;5.20;4.63;;;11.60;99.90;;;;;;6271417;22;20019;-67
2023/05/06 00:55:37;;;;;;;5.40;4.25;;;11.60;99.90;;;;;;6273738;22;20024;-67
2023/05/06 00:58:03;;;;;;;5.80;4.88;;;11.60;99.90;;;;;;6275484;22;20023;-66
2023/05/06 01:00:29;;;;;;;8.88;4.72;;;11.60;99.90;;;;;;6275330;22;20019;-66
2023/05/06 01:02:55;;;;;;;4.82;3.80;;;11.50;99.90;;;;;;6275693;22;20016;-71
2023/05/06 01:05:22;;;;;;;5.65;4.28;;;11.50;99.90;;;;;;6273353;22;20069;-71
2023/05/06 01:08:11;;;;;;;4.95;4.30;;;11.50;99.90;;;;;;6275628;22;20024;-71
2023/05/06 01:10:51;;;;;;;4.35;3.83;;;11.50;99.90;;;;;;6275066;22;20070;-71
2023/05/06 01:13:28;;;;;;;4.07;3.67;;;11.40;99.90;;;;;;6272976;22;20023;-72
2023/05/06 01:15:57;;;;;;;5.82;2.78;;;11.40;99.90;;;;;;6275404;22;20312;-72
2023/05/06 01:18:25;;;;;;;4.75;3.28;;;11.40;99.90;;;;;;6247073;22;20099;-71
2023/05/06 01:20:53;;;;;;;4.63;3.35;;;11.30;99.90;;;;;;6275412;22;20510;-71
2023/05/06 01:23:19;;;;;;;9.48;5.45;;;11.30;99.90;;;;;;6275125;22;20473;-72
2023/05/06 01:25:45;;;;;;;10.20;5.45;;;11.20;99.90;;;;;;6275024;22;20016;-71
2023/05/06 01:28:12;;;;;;;6.25;4.53;;;11.30;99.90;;;;;;6247434;22;20035;-71
2023/05/06 01:31:07;;;;;;;6.53;5.03;;;11.30;99.90;;;;;;6273026;22;20123;-71
2023/05/06 01:33:49;;;;;;;5.65;4.20;;;11.40;99.90;;;;;;6274712;22;20019;-71
2023/05/06 01:36:34;;;;;;;7.38;4.50;;;11.30;99.90;;;;;;6247559;22;20020;-71
2023/05/06 01:39:30;;;;;;;5.72;4.50;;;11.30;99.90;;;;;;6247492;22;20015;-71
2023/05/06 01:41:59;;;;;;;6.57;5.22;;;11.40;99.90;;;;;;6249476;22;20090;-71
2023/05/06 01:44:27;;;;;;;5.43;4.30;;;11.40;99.90;;;;;;6273052;22;20054;-71
2023/05/06 01:46:55;;;;;;;5.60;4.72;;;11.40;99.90;;;;;;6275183;22;20019;-71
2023/05/06 01:49:22;;;;;;;7.72;4.43;;;11.40;99.90;;;;;;6274778;22;20016;-71
2023/05/06 01:51:50;;;;;;;6.88;4.78;;;11.50;99.90;;;;;;6273896;22;20082;-71
2023/05/06 01:54:16;;;;;;;5.97;4.75;;;11.50;99.90;;;;;;6273101;22;20408;-71
2023/05/06 01:56:42;;;;;;;7.03;4.72;;;11.50;99.90;;;;;;6274975;22;20439;-71
2023/05/06 01:59:08;;;;;;;6.60;5.03;;;11.50;99.90;;;;;;6275580;22;20099;-71
2023/05/06 02:01:34;;;;;;;7.43;5.32;;;11.50;99.90;;;;;;6274935;22;20308;-71
2023/05/06 02:04:00;;;;;;;8.55;5.15;;;11.40;99.90;;;;;;6275077;22;20054;-71
2023/05/06 02:06:25;;;;;;;7.18;5.40;;;11.40;99.90;;;;;;6272840;22;20100;-71
2023/05/06 02:08:51;;;;;;;10.00;6.30;;;11.30;99.90;;;;;;6273332;22;20034;-70
2023/05/06 02:11:17;;;;;;;9.13;5.88;;;11.30;99.90;;;;;;6273364;22;20051;-71
2023/05/06 02:13:43;;;;;;;10.68;6.55;;;11.30;99.90;;;;;;6245782;22;20032;-71
2023/05/06 02:16:09;;;;;;;12.65;6.30;;;11.20;99.90;;;;;;6273038;22;20525;-71
2023/05/06 02:18:35;;;;;;;10.18;5.32;;;11.20;99.90;;;;;;6245925;22;20451;-69
2023/05/06 02:21:02;;;;;;;7.40;5.45;;;11.20;99.90;;;;;;6273042;22;20422;-69
2023/05/06 02:23:28;;;;;;;7.07;4.72;;;11.10;99.90;;;;;;6272856;22;20019;-69
2023/05/06 02:25:54;;;;;;;8.07;5.35;;;11.10;99.90;;;;;;6273188;22;20086;-69
2023/05/06 02:28:19;;;;;;;6.95;5.07;;;11.10;99.90;;;;;;6271155;22;20047;-69
2023/05/06 02:30:45;;;;;;;11.57;5.40;;;11.20;99.90;;;;;;6272880;22;20016;-69
2023/05/06 02:33:11;;;;;;;7.60;5.25;;;11.10;99.90;;;;;;6272906;22;20047;-69
2023/05/06 02:35:37;;;;;;;8.82;5.72;;;11.10;99.90;;;;;;6273086;22;20020;-69
2023/05/06 02:38:03;;;;;;;6.40;4.95;;;11.20;99.90;;;;;;6273366;22;20016;-69
2023/05/06 02:40:29;;;;;;;7.93;5.70;;;11.20;99.90;;;;;;6272995;22;20020;-69
2023/05/06 02:42:55;;;;;;;7.28;5.55;;;11.30;99.90;;;;;;6272825;22;20023;-69
2023/05/06 02:45:21;;;;;;;7.85;6.03;;;11.30;99.90;;;;;;6270980;22;20019;-69
2023/05/06 02:47:46;;;;;;;5.78;5.00;;;11.30;99.90;;;;;;6273212;22;20400;-69
2023/05/06 02:50:12;;;;;;;5.85;5.22;;;11.10;99.90;;;;;;6273022;22;20030;-69
2023/05/06 02:52:38;;;;;;;7.15;4.97;;;11.00;99.90;;;;;;6273462;22;20016;-69
2023/05/06 02:55:05;;;;;;;7.97;4.90;;;10.90;99.90;;;;;;6245924;22;20026;-69
2023/05/06 02:57:30;;;;;;;6.70;5.07;;;10.80;99.90;;;;;;6272369;22;20024;-69
2023/05/06 02:59:56;;;;;;;7.03;4.75;;;10.80;99.90;;;;;;6272809;22;20012;-69
2023/05/06 03:02:22;;;;;;;5.70;4.65;;;10.90;99.90;;;;;;6273011;22;20094;-69
2023/05/06 03:04:48;;;;;;;5.70;4.30;;;10.80;99.90;;;;;;6272361;22;20024;-69
2023/05/06 03:07:13;;;;;;;5.22;4.57;;;10.90;99.90;;;;;;6272698;22;20051;-69
2023/05/06 03:09:39;;;;;;;4.47;4.00;;;10.80;99.90;;;;;;6245620;22;20052;-69
2023/05/06 03:12:05;;;;;;;7.18;4.57;;;10.80;99.90;;;;;;6270873;22;20020;-69
2023/05/06 03:14:31;;;;;;;6.00;4.43;;;10.80;99.90;;;;;;6272464;22;20438;-71
2023/05/06 03:16:57;;;;;;;5.18;4.05;;;10.70;99.90;;;;;;6270931;22;20571;-71
2023/05/06 03:19:22;;;;;;;5.35;4.22;;;10.70;99.90;;;;;;6245222;22;20074;-71
2023/05/06 03:21:48;;;;;;;5.38;4.40;;;10.60;99.90;;;;;;6272675;22;20023;-72
2023/05/06 03:24:14;;;;;;;5.20;4.03;;;10.60;99.90;;;;;;6245024;22;20023;-72
2023/05/06 03:26:40;;;;;;;5.85;4.88;;;10.60;99.90;;;;;;6272506;22;20050;-72
2023/05/06 03:29:05;;;;;;;6.50;4.45;;;10.60;99.90;;;;;;6272218;22;20783;-71
2023/05/06 03:31:31;;;;;;;7.05;4.82;;;10.60;99.90;;;;;;6272753;22;20081;-71
2023/05/06 03:33:57;;;;;;;5.15;4.57;;;10.60;99.90;;;;;;6272647;22;20019;-67
2023/05/06 03:36:24;;;;;;;4.35;3.85;;;10.60;99.90;;;;;;6244914;22;20028;-71
2023/05/06 03:38:50;;;;;;;5.13;4.53;;;10.50;99.90;;;;;;6272612;22;20016;-71
2023/05/06 03:41:17;;;;;;;6.13;4.80;;;10.50;99.90;;;;;;6272680;22;20015;-71
2023/05/06 03:43:42;;;;;;;5.90;4.32;;;10.50;99.90;;;;;;6272242;22;20015;-72
2023/05/06 03:46:08;;;;;;;6.00;4.30;;;10.50;99.90;;;;;;6272204;22;20131;-71
2023/05/06 03:48:34;;;;;;;4.07;3.67;;;10.40;99.90;;;;;;6272574;22;20030;-71
2023/05/06 03:51:00;;;;;;;3.78;3.47;;;10.40;99.90;;;;;;6271738;22;20022;-71
2023/05/06 03:53:27;;;;;;;3.67;3.33;;;10.40;99.90;;;;;;6272323;22;20030;-66
2023/05/06 03:55:52;;;;;;;4.85;3.80;;;10.40;99.90;;;;;;6272320;22;20020;-67
2023/05/06 03:58:18;;;;;;;4.40;4.00;;;10.40;99.90;;;;;;6243910;22;20497;-66
2023/05/06 04:00:44;;;;;;;4.72;4.13;;;10.40;99.90;;;;;;6272381;22;20470;-66
2023/05/06 04:03:10;;;;;;;4.47;4.05;;;10.40;99.90;;;;;;6271863;22;20043;-67
2023/05/06 04:05:36;;;;;;;3.95;3.65;;;10.30;99.90;;;;;;6271871;22;20020;-66
2023/05/06 04:08:01;;;;;;;4.40;3.70;;;10.20;99.90;;;;;;6271969;22;20094;-66
2023/05/06 04:10:28;;;;;;;6.25;3.78;;;10.10;99.90;;;;;;6272149;22;20023;-66
2023/05/06 04:12:53;;;;;;;5.53;3.95;;;10.00;99.90;;;;;;6271881;22;20471;-71
2023/05/06 04:15:19;;;;;;;6.95;4.07;;;9.90;99.90;;;;;;6271758;22;20019;-71
2023/05/06 04:17:45;;;;;;;4.28;3.58;;;9.90;99.90;;;;;;6270308;22;20544;-72
2023/05/06 04:20:11;;;;;;;5.72;3.80;;;9.80;99.90;;;;;;6272183;22;20020;-72
2023/05/06 04:22:37;;;;;;;4.05;3.45;;;9.80;99.90;;;;;;6272351;22;20050;-71
2023/05/06 04:25:03;;;;;;;7.07;3.83;;;9.70;99.90;;;;;;6272257;22;20076;-71
2023/05/06 04:27:30;;;;;;;8.73;4.03;;;9.60;99.90;;;;;;6271513;22;20019;-72
2023/05/06 04:29:57;;;;;;;5.78;4.30;;;9.70;99.90;;;;;;6271451;22;20051;-70
2023/05/06 04:32:25;;;;;;;13.13;3.88;;;9.70;99.90;;;;;;6272407;22;20461;-72
2023/05/06 04:34:52;;;;;;;18.60;4.28;;;9.70;99.90;;;;;;6271179;22;20012;-71
2023/05/06 04:37:18;;;;;;;18.65;4.07;;;9.80;99.90;;;;;;6271446;22;20089;-72
2023/05/06 04:39:47;;;;;;;4.60;3.92;;;9.80;99.90;;;;;;6244514;22;20324;-72
2023/05/06 04:42:13;;;;;;;3.90;3.60;;;9.80;99.90;;;;;;6271783;22;20082;-72
2023/05/06 04:44:40;;;;;;;4.50;4.10;;;9.80;99.90;;;;;;6271558;22;20019;-72
2023/05/06 04:47:06;;;;;;;6.47;4.00;;;9.90;99.90;;;;;;6244595;22;20028;-72
2023/05/06 04:49:31;;;;;;;11.13;4.22;;;9.80;99.90;;;;;;6270074;22;20023;-66
2023/05/06 04:51:57;;;;;;;5.43;3.72;;;9.90;99.90;;;;;;6271641;22;20019;-72
2023/05/06 04:54:23;;;;;;;4.47;3.92;;;10.00;99.90;;;;;;6271420;22;20055;-71
2023/05/06 04:56:49;;;;;;;4.45;4.03;;;10.00;99.90;;;;;;6243337;22;20031;-72
2023/05/06 04:59:15;;;;;;;4.53;4.13;;;10.00;99.90;;;;;;6271563;22;20323;-72
2023/05/06 05:01:41;;;;;;;9.20;5.22;;;9.90;99.90;;;;;;6271735;22;20073;-72
2023/05/06 05:04:06;;;;;;;6.57;4.60;;;10.10;99.90;;;;;;6244932;22;20077;-72
2023/05/06 05:06:32;;;;;;;6.18;4.47;;;10.10;99.90;;;;;;6271805;22;20442;-72
2023/05/06 05:08:58;;;;;;;5.75;4.60;;;10.10;99.90;;;;;;6271709;22;20073;-72
2023/05/06 05:11:24;;;;;;;7.00;5.72;;;10.20;99.90;;;;;;6272013;22;20046;-72
2023/05/06 05:13:50;;;;;;;8.68;5.30;;;10.10;99.90;;;;;;6270379;22;20091;-71
2023/05/06 05:16:16;;;;;;;6.70;5.45;;;10.20;99.90;;;;;;6272288;22;20022;-71
2023/05/06 05:18:41;;;;;;;7.75;5.65;;;10.20;99.90;;;;;;6271894;22;20090;-72
2023/05/06 05:21:07;;;;;;;6.75;5.28;;;10.30;99.90;;;;;;6272073;22;20057;-71
2023/05/06 05:23:33;;;;;;;9.45;6.35;;;10.30;99.90;;;;;;6272053;22;20023;-72
2023/05/06 05:26:00;;;;;;;10.20;6.45;;;10.40;99.90;;;;;;6269606;22;20455;-72
2023/05/06 05:28:28;;;;;;;9.55;6.28;;;10.40;99.90;;;;;;6271706;22;20024;-71
2023/05/06 05:31:00;;;;;;;9.05;6.15;;;10.50;99.90;;;;;;6271695;22;20019;-71
2023/05/06 05:33:25;;;;;;;10.23;7.13;;;10.60;99.90;;;;;;6271279;22;20312;-72
2023/05/06 05:35:51;;;;;;;9.77;7.00;;;10.70;99.90;;;;;;6271630;22;20020;-71
2023/05/06 05:38:17;;;;;;;9.63;7.22;;;10.80;99.90;;;;;;6271866;22;20320;-71
2023/05/06 05:40:42;;;;;;;8.38;6.38;;;10.80;99.90;;;;;;6270908;22;20016;-71
2023/05/06 05:43:08;;;;;;;9.18;6.88;;;10.80;99.90;;;;;;6272509;22;20019;-72
2023/05/06 05:45:34;;;;;;;9.15;7.10;;;10.90;99.90;;;;;;6273851;22;20016;-71
2023/05/06 05:48:00;;;;;;;9.27;7.70;;;11.00;99.90;;;;;;6273675;22;20094;-72
2023/05/06 05:50:25;;;;;;;13.18;8.68;;;11.10;99.90;;;;;;6276915;22;20020;-71
2023/05/06 05:52:51;;;;;;;10.20;7.72;;;11.10;99.90;;;;;;6278463;22;20091;-71
2023/05/06 05:55:17;;;;;;;9.65;7.70;;;11.10;99.90;;;;;;6280103;22;20015;-71
2023/05/06 05:57:43;;;;;;;9.45;8.13;;;11.10;99.90;;;;;;6279902;22;20030;-72
2023/05/06 06:00:10;;;;;;;9.25;7.80;;;11.10;99.90;;;;;;6278357;22;20012;-71
2023/05/06 06:02:35;;;;;;;10.57;7.85;;;11.30;99.90;;;;;;6250869;22;20055;-72
2023/05/06 06:05:01;;;;;;;12.30;8.32;;;11.40;99.90;;;;;;6277922;22;20019;-72
2023/05/06 06:07:27;;;;;;;10.70;8.15;;;11.50;99.90;;;;;;6277521;22;20398;-69
2023/05/06 06:09:52;;;;;;;10.95;8.68;;;11.70;99.90;;;;;;6273818;22;20024;-67
2023/05/06 06:12:18;;;;;;;16.90;8.95;;;11.80;99.90;;;;;;6274407;22;20142;-70
2023/05/06 06:14:47;;;;;;;14.05;10.45;;;12.10;99.90;;;;;;6246750;22;20016;-66
2023/05/06 06:17:15;;;;;;;16.23;11.23;;;12.20;99.90;;;;;;6274804;22;20591;-67
2023/05/06 06:19:44;;;;;;;16.08;11.25;;;12.30;99.90;;;;;;6275463;22;20085;-69
2023/05/06 06:22:09;;;;;;;17.83;12.10;;;12.40;99.90;;;;;;6275053;22;20022;-67
2023/05/06 06:24:35;;;;;;;18.10;12.20;;;12.60;99.90;;;;;;6273375;22;20413;-69
2023/05/06 06:27:01;;;;;;;20.60;12.77;;;12.70;99.90;;;;;;6248381;22;20030;-69
2023/05/06 06:29:27;;;;;;;18.40;12.50;;;12.90;99.90;;;;;;6275111;22;20023;-68
2023/05/06 06:31:54;;;;;;;19.88;12.48;;;13.00;99.90;;;;;;6273050;22;20016;-68
2023/05/06 06:34:20;;;;;;;22.33;12.88;;;13.20;99.90;;;;;;6275625;22;20157;-68
2023/05/06 06:36:46;;;;;;;20.77;12.55;;;13.30;99.90;;;;;;6274820;22;20019;-68
2023/05/06 06:39:12;;;;;;;20.05;12.63;;;13.40;99.90;;;;;;6247598;22;20030;-68
2023/05/06 06:41:38;;;;;;;21.42;13.15;;;13.50;99.90;;;;;;6274725;22;20051;-69
2023/05/06 06:44:04;;;;;;;22.45;12.95;;;13.80;99.90;;;;;;6273895;22;20023;-68
2023/05/06 06:46:30;;;;;;;27.25;14.85;;;13.90;99.90;;;;;;6273386;22;20016;-68
2023/05/06 06:48:56;;;;;;;27.50;15.10;;;14.20;99.90;;;;;;6273288;22;20019;-68
2023/05/06 06:51:21;;;;;;;23.98;13.07;;;14.30;99.90;;;;;;6272553;22;20055;-68
2023/05/06 06:53:48;;;;;;;26.95;14.23;;;14.40;99.90;;;;;;6272661;22;20020;-68
2023/05/06 06:56:14;;;;;;;30.98;16.08;;;14.40;99.90;;;;;;6272681;22;20355;-68
2023/05/06 06:58:41;;;;;;;24.48;14.57;;;14.50;99.90;;;;;;6272980;22;20027;-68
2023/05/06 07:01:06;;;;;;;29.35;14.93;;;14.50;99.90;;;;;;6273005;22;20322;-68
2023/05/06 07:03:32;;;;;;;27.95;14.57;;;14.40;99.90;;;;;;6245902;22;20435;-69
2023/05/06 07:05:58;;;;;;;24.58;13.10;;;14.40;99.90;;;;;;6272128;22;20023;-68
2023/05/06 07:08:24;;;;;;;24.90;14.43;;;14.40;99.90;;;;;;6272438;22;20019;-69
2023/05/06 07:10:49;;;;;;;29.25;14.50;;;14.50;99.90;;;;;;6272390;22;20024;-68
2023/05/06 07:13:15;;;;;;;25.45;14.70;;;14.50;99.90;;;;;;6272414;22;20103;-68
2023/05/06 07:15:41;;;;;;;27.40;13.70;;;14.50;99.90;;;;;;6272521;22;20015;-69
2023/05/06 07:18:08;;;;;;;25.38;13.02;;;14.50;99.90;;;;;;6272713;22;20042;-69
2023/05/06 07:20:33;;;;;;;26.40;15.13;;;14.50;99.90;;;;;;6272154;22;20050;-68
2023/05/06 07:22:59;;;;;;;22.85;13.63;;;14.50;99.90;;;;;;6272385;22;20019;-71
2023/05/06 07:25:26;;;;;;;31.77;15.35;;;14.50;99.90;;;;;;6245317;22;20011;-71
2023/05/06 07:27:52;;;;;;;32.35;15.82;;;14.50;99.90;;;;;;6245385;22;20019;-71
2023/05/06 07:30:19;;;;;;;31.30;15.38;;;14.60;99.90;;;;;;6245529;22;20027;-71
2023/05/06 07:32:44;;;;;;;28.83;15.38;;;14.80;99.90;;;;;;6272667;22;20055;-71
2023/05/06 07:35:10;;;;;;;31.23;15.13;;;15.00;99.90;;;;;;6244782;22;20023;-71
2023/05/06 07:37:36;;;;;;;25.92;15.27;;;15.00;99.90;;;;;;6272754;22;20081;-70
2023/05/06 07:40:02;;;;;;;28.20;14.82;;;15.20;99.90;;;;;;6272579;22;20448;-71
2023/05/06 07:42:27;;;;;;;28.38;15.00;;;15.20;99.90;;;;;;6272359;22;20032;-69
2023/05/06 07:44:53;;;;;;;28.02;14.85;;;15.20;99.90;;;;;;6270034;22;20451;-69
2023/05/06 07:47:30;;;;;;;28.35;15.75;;;15.20;99.90;;;;;;6244713;22;20027;-69
2023/05/06 07:49:56;;;;;;;29.98;16.15;;;15.40;99.90;;;;;;6271566;22;20012;-69
2023/05/06 07:52:23;;;;;;;30.70;15.73;;;15.40;99.90;;;;;;6272271;22;20030;-69
2023/05/06 09:07:30;;;;;;;33.78;16.10;;;17.10;99.90;;;;;;6242173;23;20035;-70
2023/05/06 09:09:55;;;;;;;29.90;15.00;;;17.10;99.90;;;;;;6243456;23;20016;-70
2023/05/06 09:12:23;;;;;;;30.50;13.10;;;17.30;99.90;;;;;;6244009;23;20132;-70
2023/05/06 09:14:50;;;;;;;26.15;13.27;;;17.30;99.90;;;;;;6216809;23;20020;-70
2023/05/06 09:17:22;;;;;;;32.38;13.43;;;17.40;99.90;;;;;;6243590;23;20020;-67
2023/05/06 09:19:49;;;;;;;;;;;17.50;99.90;;;;;;6215727;23;20023;-67
2023/05/06 09:22:15;;;;;;;23.15;13.07;;;17.50;99.90;;;;;;6242837;23;20014;-67
2023/05/06 09:24:41;;;;;;;23.40;12.00;;;17.70;99.90;;;;;;6215697;23;20085;-67
2023/05/06 09:27:07;;;;;;;25.92;14.38;;;17.80;99.90;;;;;;6243170;23;20020;-67
2023/05/06 09:29:32;;;;;;;23.67;12.88;;;17.70;99.90;;;;;;6243096;23;20016;-67
2023/05/06 09:32:06;;;;;;;21.95;12.98;;;17.80;99.90;;;;;;6242986;23;20027;-67
2023/05/06 09:34:33;;;;;;;17.90;9.80;;;17.90;99.90;;;;;;6242458;23;20067;-68
2023/05/06 09:36:59;;;;;;;13.77;8.55;;;18.00;99.90;;;;;;6241734;23;20043;-67
2023/05/06 09:39:26;;;;;;;12.40;8.00;;;18.10;99.90;;;;;;6242999;23;20337;-67
2023/05/06 09:41:52;;;;;;;13.98;8.65;;;18.10;99.90;;;;;;6242373;23;20012;-67
2023/05/06 09:44:20;;;;;;;19.50;9.38;;;18.10;99.90;;;;;;6242682;23;20095;-67
2023/05/06 09:46:46;;;;;;;21.33;11.10;;;18.10;99.90;;;;;;6242284;23;20453;-67
2023/05/06 09:49:13;;;;;;;17.15;9.57;;;18.10;99.90;;;;;;6242384;23;20020;-67
2023/05/06 09:51:46;;;;;;;14.55;8.43;;;18.10;99.90;;;;;;6242487;23;20023;-67
2023/05/06 09:54:14;;;;;;;16.70;9.18;;;18.10;99.90;;;;;;6242646;23;20027;-68
2023/05/06 09:56:42;;;;;;;15.75;9.10;;;18.10;99.90;;;;;;6242514;23;20020;-67
2023/05/06 09:59:09;;;;;;;14.05;9.48;;;18.20;99.90;;;;;;6215280;23;20015;-67
2023/05/06 10:01:36;;;;;;;20.80;10.30;;;18.20;99.90;;;;;;6242932;23;20020;-71
2023/05/06 10:04:08;;;;;;;16.67;8.95;;;18.20;99.90;;;;;;6218216;23;20028;-70
2023/05/06 10:06:38;;;;;;;16.42;9.40;;;18.20;99.90;;;;;;6266550;22;20030;-70
2023/05/06 10:09:06;;;;;;;16.25;8.60;;;18.20;99.90;;;;;;6248248;22;20019;-71
2023/05/06 10:11:32;;;;;;;13.93;8.25;;;18.10;99.90;;;;;;6273636;22;20019;-70
2023/05/06 10:14:00;;;;;;;14.00;9.43;;;18.10;99.90;;;;;;6275662;22;20230;-70
2023/05/06 10:16:27;;;;;;;15.40;9.48;;;18.20;99.90;;;;;;6247875;22;20015;-70
2023/05/06 10:18:54;;;;;;;13.32;7.82;;;18.20;99.90;;;;;;6273967;22;20026;-71
2023/05/06 10:21:26;;;;;;;15.60;8.38;;;18.20;99.90;;;;;;6275682;22;20019;-71
2023/05/06 10:24:08;;;;;;;12.68;6.93;;;18.20;99.90;;;;;;6274506;22;20031;-71
2023/05/06 10:26:38;;;;;;;7.75;5.90;;;18.30;99.90;;;;;;6275861;22;20331;-71
2023/05/06 10:29:09;;;;;;;9.77;6.75;;;18.40;99.90;;;;;;6248719;22;20012;-70
2023/05/06 10:31:45;;;;;;;10.48;6.25;;;18.40;99.90;;;;;;6276419;22;20047;-71
2023/05/06 10:34:10;;;;;;;13.32;7.18;;;18.40;99.90;;;;;;6275890;22;20054;-70
2023/05/06 10:36:38;;;;;;;14.40;7.40;;;18.50;99.90;;;;;;6274653;22;20416;-71
2023/05/06 10:39:05;;;;;;;15.15;7.38;;;18.50;99.90;;;;;;6273829;22;20016;-71
2023/05/06 10:41:32;;;;;;;13.43;6.75;;;18.70;99.90;;;;;;6247882;22;20020;-71
2023/05/06 10:43:58;;;;;;;10.82;7.00;;;18.90;99.90;;;;;;6248089;22;20023;-70
2023/05/06 10:46:26;;;;;;;10.05;6.90;;;19.00;99.90;;;;;;6247843;22;20027;-71
2023/05/06 10:49:10;;;;;;;13.45;6.65;;;19.00;99.90;;;;;;6275644;22;20023;-71
2023/05/06 10:51:40;;;;;;;12.10;7.63;;;19.00;99.90;;;;;;6248969;22;20419;-71
2023/05/06 10:54:10;;;;;;;12.02;7.60;;;19.00;99.90;;;;;;6274278;22;20027;-71
2023/05/06 10:57:01;;;;;;;10.82;7.55;;;18.90;99.90;;;;;;6273558;22;20451;-71
2023/05/06 10:59:30;;;;;;;13.50;7.93;;;18.90;99.90;;;;;;6227622;22;20028;-71
2023/05/06 11:02:02;;;;;;;11.45;7.60;;;18.90;99.90;;;;;;6247899;22;20027;-71
2023/05/06 11:04:30;;;;;;;14.75;9.20;;;18.90;99.90;;;;;;6273195;22;20038;-71
2023/05/06 11:07:21;;;;;;;15.15;8.32;;;18.90;99.90;;;;;;6274573;22;20050;-71
2023/05/06 11:09:54;;;;;;;14.75;8.63;;;18.90;99.90;;;;;;6273592;22;20034;-71
2023/05/06 11:12:20;;;;;;;12.20;7.97;;;19.00;99.90;;;;;;6275601;22;20026;-71
2023/05/06 11:14:46;;;;;;;12.77;9.60;;;18.90;99.90;;;;;;6248353;22;20321;-71
2023/05/06 11:17:30;;;;;;;14.88;9.30;;;18.90;99.90;;;;;;6275908;22;20095;-71
2023/05/06 11:20:18;;;;;;;20.15;10.10;;;18.70;99.90;;;;;;6274331;22;20019;-71
2023/05/06 11:22:44;;;;;;;12.45;7.72;;;19.10;99.90;;;;;;6275303;22;20020;-71
2023/05/06 11:25:10;;;;;;;12.10;8.38;;;19.20;99.90;;;;;;6248380;22;20019;-71
2023/05/06 11:27:36;;;;;;;13.32;8.23;;;19.20;99.90;;;;;;6275561;22;20382;-71
2023/05/06 11:30:03;;;;;;;14.68;8.90;;;19.30;99.90;;;;;;6274981;22;20691;-72
2023/05/06 11:32:31;;;;;;;13.25;8.65;;;19.40;99.90;;;;;;6274638;22;20150;-71
2023/05/06 11:34:57;;;;;;;13.05;8.57;;;19.30;99.90;;;;;;6275227;22;20015;-70
2023/05/06 11:37:25;;;;;;;13.25;8.82;;;19.40;99.90;;;;;;6275399;22;20012;-71
2023/05/06 11:39:50;;;;;;;15.70;9.30;;;19.50;99.90;;;;;;6275591;22;20020;-72
2023/05/06 11:42:24;;;;;;;16.27;9.30;;;19.60;99.90;;;;;;6275748;22;20361;-72
2023/05/06 11:44:52;;;;;;;14.77;9.40;;;19.60;99.90;;;;;;6272709;22;20432;-72
2023/05/06 11:47:21;;;;;;;16.33;9.70;;;19.80;99.90;;;;;;6274099;22;20039;-71
2023/05/06 11:49:51;;;;;;;14.68;9.70;;;19.70;99.90;;;;;;6274500;22;20026;-72
2023/05/06 11:52:18;;;;;;;15.30;9.57;;;19.80;99.90;;;;;;6275006;22;20474;-71
2023/05/06 11:54:44;;;;;;;15.55;11.10;;;19.60;99.90;;;;;;6275036;22;20007;-71
2023/05/06 11:57:10;;;;;;;16.42;10.15;;;19.60;99.90;;;;;;6274352;22;20023;-71
2023/05/06 11:59:38;;;;;;;15.68;10.00;;;19.80;99.90;;;;;;6274945;22;20046;-71
2023/05/06 12:02:08;;;;;;;14.63;8.60;;;19.90;99.90;;;;;;6247629;22;20016;-71
2023/05/06 12:04:45;;;;;;;14.13;9.82;;;20.00;99.90;;;;;;6247107;22;20019;-72
2023/05/06 12:07:12;;;;;;;15.70;10.30;;;19.80;99.90;;;;;;6275695;22;20050;-72
2023/05/06 12:09:42;;;;;;;18.13;10.75;;;19.70;99.90;;;;;;6274316;22;20088;-70
2023/05/06 12:12:09;;;;;;;11.45;9.77;;;19.60;99.90;;;;;;6273122;22;20043;-69
2023/05/06 12:14:39;;;;;;;14.77;9.50;;;19.50;99.90;;;;;;6246465;22;20016;-69
2023/05/06 12:17:05;;;;;;;15.88;9.77;;;19.50;99.90;;;;;;6273497;22;20020;-70
2023/05/06 12:19:31;;;;;;;17.23;10.38;;;19.50;99.90;;;;;;6273741;22;20289;-69
2023/05/06 12:22:13;;;;;;;16.00;10.45;;;19.50;99.90;;;;;;6272874;22;20683;-69
2023/05/06 12:24:39;;;;;;;13.60;9.52;;;19.40;99.90;;;;;;6246142;22;20044;-69
2023/05/06 12:27:05;;;;;;;13.73;9.05;;;19.40;99.90;;;;;;6273481;22;20071;-69
2023/05/06 12:29:31;;;;;;;11.65;8.57;;;19.30;99.90;;;;;;6274107;22;20022;-70
2023/05/06 12:32:08;;;;;;;12.73;9.00;;;19.30;99.90;;;;;;6246166;22;20019;-69
2023/05/06 12:34:40;;;;;;;12.88;9.88;;;19.30;99.90;;;;;;6273447;22;20451;-69
2023/05/06 12:37:07;;;;;;;;;;;19.30;99.90;;;;;;6274147;22;20547;-69
2023/05/06 12:39:37;;;;;;;12.55;9.95;;;19.30;99.90;;;;;;6273162;22;19915;-70
2023/05/06 12:42:04;;;;;;;15.10;10.57;;;19.40;99.90;;;;;;6272959;22;20023;-70
2023/05/06 12:44:38;;;;;;;16.48;11.55;;;19.50;99.90;;;;;;6273319;22;20019;-70
2023/05/06 12:47:17;;;;;;;14.85;10.20;;;19.60;99.90;;;;;;6271505;22;20018;-68
2023/05/06 12:49:53;;;;;;;13.00;10.77;;;19.80;99.90;;;;;;6274439;22;20046;-73
2023/05/06 12:52:21;;;;;;;14.23;9.82;;;19.80;99.90;;;;;;6275861;22;20016;-72
2023/05/06 12:54:47;;;;;;;16.25;10.77;;;19.80;99.90;;;;;;6273976;22;20015;-73
2023/05/06 12:57:14;;;;;;;14.38;9.95;;;19.70;99.90;;;;;;6274495;22;20451;-73
2023/05/06 12:59:42;;;;;;;15.13;10.07;;;19.60;99.90;;;;;;6274149;22;20026;-73
2023/05/06 13:02:08;;;;;;;10.77;8.95;;;19.60;99.90;;;;;;6274646;22;20030;-73
2023/05/06 13:04:34;;;;;;;15.45;9.73;;;19.70;99.90;;;;;;6248404;22;20535;-72
2023/05/06 13:07:00;;;;;;;12.68;9.50;;;19.60;99.90;;;;;;6248735;22;20024;-73
2023/05/06 13:09:26;;;;;;;14.52;9.30;;;19.70;99.90;;;;;;6248102;22;20111;-72
2023/05/06 13:11:52;;;;;;;14.85;11.60;;;19.60;99.90;;;;;;6248416;22;20509;-73
2023/05/06 13:14:17;;;;;;;14.18;10.88;;;19.40;99.90;;;;;;6275500;22;20081;-73
2023/05/06 13:16:44;;;;;;;16.00;11.93;;;19.30;99.90;;;;;;6248780;22;20023;-73
2023/05/06 13:19:10;;;;;;;16.88;11.85;;;19.20;99.90;;;;;;6248421;22;20027;-72
2023/05/06 13:21:37;;;;;;;17.55;12.38;;;19.30;99.90;;;;;;6275938;22;20030;-73
2023/05/06 13:24:04;;;;;;;17.08;12.50;;;19.30;99.90;;;;;;6275021;22;20016;-69
2023/05/06 13:26:31;;;;;;;16.08;12.10;;;19.30;99.90;;;;;;6244186;22;20079;-68
2023/05/06 13:28:57;;;;;;;15.50;12.60;;;19.30;99.90;;;;;;6271714;22;20410;-68
2023/05/06 13:31:22;;;;;;;12.75;10.63;;;19.40;99.90;;;;;;6271159;22;20019;-67
2023/05/06 13:33:48;;;;;;;14.48;10.50;;;19.40;99.90;;;;;;6272567;22;20039;-68
2023/05/06 13:36:14;;;;;;;15.40;10.00;;;19.40;99.90;;;;;;6244920;22;20791;-68
2023/05/06 13:38:40;;;;;;;16.55;10.50;;;19.60;99.90;;;;;;6272027;22;20024;-68
2023/05/06 13:41:06;;;;;;;15.68;11.60;;;19.70;99.90;;;;;;6273158;22;20024;-66
2023/05/06 13:43:32;;;;;;;14.35;10.05;;;19.80;99.90;;;;;;6272712;22;20147;-76
2023/05/06 13:45:58;;;;;;;17.42;9.63;;;19.80;99.90;;;;;;6276731;22;20023;-75
2023/05/06 13:48:23;;;;;;;13.25;9.77;;;19.80;99.90;;;;;;6276657;22;20020;-76
2023/05/06 13:50:49;;;;;;;16.45;9.73;;;20.00;99.90;;;;;;6248786;22;20678;-76
2023/05/06 13:53:15;;;;;;;14.70;9.30;;;20.00;99.90;;;;;;6276748;22;20022;-76
2023/05/06 13:55:41;;;;;;;16.02;10.18;;;19.90;99.90;;;;;;6276304;22;20031;-76